Latest Weather Observations for Ben Nevis

IDV60801

Issued at 1:02 pm EDT Friday 18 October 2019 (issued every 10 minutes, with the page automatically refreshed every 10 minutes)

About weather observations | Map of weather stations | Latest weather observations for VIC | Other Formats
Station Details ID: 079101 Name: BEN NEVIS Lat: -37.23 Lon: 143.20 Height: 875.0 m
Data from the previous 72 hours. | See also: Recent months at Ben Nevis
Date/Time
EDT
Temp
°C
App
Temp
°C
Dew
Point
°C
Rel
Hum
%
Delta-T
°C
Wind Press
QNH
hPa
Press
MSL
hPa
Rain since
9am
mm
Dir  Spd
km/h
Gust
km/h
Spd
kts
Gust
kts
18/01:00pm 9.1 5.1 4.7 74 2.1 NNE 15 32 8 17 - - 0.0
18/12:30pm 8.5 3.6 4.9 78 1.7 N 20 43 11 23 - - 0.0
18/12:00pm 8.3 2.8 5.8 84 1.2 NNW 24 44 13 24 - - 0.0
18/11:30am 7.3 2.6 5.0 85 1.1 N 19 37 10 20 - - 0.0
18/11:00am 6.0 1.0 4.5 90 0.7 NNW 20 37 11 20 - - 0.0
18/10:30am 5.3 0.5 4.6 95 0.3 NNW 19 33 10 18 - - 0.0
18/10:00am 4.3 -0.3 3.9 97 0.2 NNW 17 33 9 18 - - 0.0
18/09:30am 3.8 -1.2 3.4 97 0.2 NNW 19 32 10 17 - - 0.0
18/09:00am 3.3 -1.5 2.7 96 0.3 N 17 28 9 15 - - 1.4
18/08:30am 3.2 -1.6 2.6 96 0.3 NNW 17 32 9 17 - - 1.4
18/08:00am 3.0 -2.2 2.4 96 0.3 NNW 19 33 10 18 - - 1.4
18/07:30am 2.6 -2.3 2.2 97 0.2 NNW 17 33 9 18 - - 1.4
18/07:00am 2.2 -2.8 1.6 96 0.2 NNW 17 26 9 14 - - 1.4
18/06:30am 2.1 -2.5 1.5 96 0.2 NNW 15 24 8 13 - - 1.4
18/06:00am 2.1 -2.5 1.5 96 0.2 NNW 15 26 8 14 - - 1.4
18/05:30am 2.1 -0.9 1.7 97 0.2 N 7 19 4 10 - - 1.4
18/05:00am 1.8 -1.7 1.2 96 0.2 NNW 9 17 5 9 - - 1.4
18/04:30am 1.8 -2.1 1.1 95 0.3 N 11 19 6 10 - - 1.4
18/04:00am 1.6 -2.0 0.9 95 0.3 NNW 9 19 5 10 - - 1.4
18/03:30am 1.6 -2.0 0.7 94 0.4 NNW 9 20 5 11 - - 1.4
18/03:00am 1.6 -2.0 0.6 93 0.4 NW 9 17 5 9 - - 1.4
18/02:30am 1.9 -2.1 0.7 92 0.5 NNW 11 15 6 8 - - 1.4
18/02:00am 2.2 -1.7 0.9 91 0.5 NNW 11 17 6 9 - - 1.4
18/01:30am 2.1 -1.0 1.1 93 0.4 NW 7 17 4 9 - - 1.4
18/01:00am 2.4 -1.5 1.4 93 0.4 N 11 17 6 9 - - 1.4
18/12:30am 2.4 -0.6 0.9 90 0.6 WNW 6 11 3 6 - - 1.4
18/12:00am 2.9 -1.0 1.3 89 0.7 W 11 15 6 8 - - 1.4
 
Date/Time
EDT
Temp
°C
App
Temp
°C
Dew
Point
°C
Rel
Hum
%
Delta-T
°C
Wind Press
QNH
hPa
Press
MSL
hPa
Rain since
9am
mm
Dir  Spd
km/h
Gust
km/h
Spd
kts
Gust
kts
17/11:30pm 2.8 -1.9 1.0 88 0.7 WSW 15 24 8 13 - - 1.4
17/11:00pm 3.0 -2.6 1.1 87 0.8 WSW 20 26 11 14 - - 1.4
17/10:30pm 3.4 -2.9 1.6 88 0.7 WSW 24 33 13 18 - - 1.4
17/10:00pm 3.8 -3.2 1.8 87 0.8 WSW 28 35 15 19 - - 1.4
17/09:30pm 4.0 -2.6 2.2 88 0.8 SW 26 35 14 19 - - 1.4
17/09:00pm 4.5 -1.6 2.8 89 0.7 WSW 24 32 13 17 - - 1.4
17/08:30pm 4.6 -2.0 2.3 85 1.0 WSW 26 35 14 19 - - 1.4
17/08:00pm 5.0 -1.4 3.3 89 0.7 WSW 26 41 14 22 - - 1.4
17/07:30pm 5.5 0.3 3.8 89 0.8 WSW 20 37 11 20 - - 1.4
17/07:00pm 6.1 0.2 3.8 85 1.0 WSW 24 43 13 23 - - 1.4
17/06:30pm 6.1 -1.3 3.9 86 1.0 WSW 32 50 17 27 - - 1.4
17/06:09pm 6.2 -1.3 4.4 88 0.8 WSW 33 54 18 29 - - 1.4
17/06:00pm 6.2 -1.0 4.8 91 0.6 WSW 32 44 17 24 - - 1.4
17/05:30pm 6.3 -1.0 5.3 93 0.5 WSW 33 54 18 29 - - 1.4
17/05:11pm 6.2 -1.1 5.5 95 0.3 WSW 33 52 18 28 - - 1.4
17/05:00pm 6.2 -1.1 5.6 96 0.3 WSW 33 50 18 27 - - 1.4
17/04:34pm 6.4 -0.3 5.7 95 0.3 WSW 30 48 16 26 - - 1.4
17/04:30pm 6.3 -1.0 5.6 95 0.3 WSW 33 48 18 26 - - 1.4
17/04:00pm 7.7 1.4 7.4 98 0.1 WSW 30 48 16 26 - - 1.4
17/03:31pm 5.9 -1.3 5.0 94 0.4 WSW 32 52 17 28 - - 1.2
17/03:30pm 6.0 -1.2 5.1 94 0.4 WSW 32 44 17 24 - - 1.2
17/03:00pm 5.9 -1.3 4.9 93 0.5 WSW 32 61 17 33 - - 1.0
17/02:44pm 6.0 -0.8 5.0 93 0.5 WSW 30 52 16 28 - - 1.0
17/02:30pm 6.8 1.0 6.4 97 0.2 WSW 26 44 14 24 - - 1.0
17/02:03pm 5.6 -0.8 5.2 97 0.2 WSW 28 48 15 26 - - 0.8
17/02:00pm 5.7 0.1 5.3 97 0.2 WSW 24 46 13 25 - - 0.8
17/01:30pm 5.5 0.6 5.1 97 0.2 W 20 37 11 20 - - 0.8
17/01:00pm 4.7 -2.4 3.5 92 0.5 WSW 30 48 16 26 - - 0.4
17/12:30pm 5.5 -1.4 2.7 82 1.2 W 28 46 15 25 - - 0.0
17/12:13pm 6.2 -0.8 1.7 73 1.9 WSW 28 57 15 31 - - 0.0
17/12:00pm 7.4 1.6 2.5 71 2.2 WSW 22 46 12 25 - - 0.0
17/11:30am 6.5 -0.5 1.8 72 2.0 W 28 54 15 29 - - 0.0
17/11:02am 6.4 -1.5 1.3 70 2.2 W 32 50 17 27 - - 0.0
17/11:00am 6.5 -1.3 1.6 71 2.1 W 32 48 17 26 - - 0.0
17/10:38am 6.5 -0.6 1.2 69 2.2 WSW 28 50 15 27 - - 0.0
17/10:30am 6.2 -0.5 1.7 73 1.9 WSW 26 44 14 24 - - 0.0
17/10:00am 5.4 -2.0 1.9 78 1.5 WSW 30 52 16 28 - - 0.0
17/09:39am 4.5 -3.3 1.4 80 1.3 WSW 32 50 17 27 - - 0.0
17/09:30am 4.0 -4.0 1.7 85 1.0 WSW 33 48 18 26 - - 0.0
17/09:04am 2.7 -4.2 2.6 99 0.0 WSW 28 46 15 25 - - 0.0
17/09:00am 3.1 -3.0 3.0 99 0.0 WSW 24 46 13 25 - - 2.0
17/08:47am 2.8 -4.5 2.7 99 0.0 WSW 30 52 16 28 - - 2.0
17/08:30am 2.5 -4.4 2.4 99 0.0 WSW 28 43 15 23 - - 2.0
17/08:00am 2.3 -4.7 2.2 99 0.0 WSW 28 39 15 21 - - 2.0
17/07:30am 2.4 -4.5 2.3 99 0.0 WSW 28 43 15 23 - - 2.0
17/07:00am 2.5 -3.7 2.4 99 0.0 W 24 39 13 21 - - 2.0
17/06:30am 2.7 -2.1 2.6 99 0.0 W 17 30 9 16 - - 2.0
17/06:00am 2.8 -2.0 2.7 99 0.0 W 17 24 9 13 - - 2.0
17/05:30am 2.7 -3.4 2.6 99 0.0 W 24 39 13 21 - - 2.0
17/05:00am 3.1 -2.0 2.8 98 0.1 W 19 39 10 21 - - 2.0
17/04:30am 3.3 -0.3 3.0 98 0.1 W 11 20 6 11 - - 1.6
17/04:00am 3.6 0.1 3.3 98 0.1 WNW 11 22 6 12 - - 1.4
17/03:30am 4.2 0.0 3.9 98 0.1 W 15 26 8 14 - - 1.4
17/03:00am 4.1 -1.1 3.8 98 0.1 W 20 43 11 23 - - 1.2
17/02:30am 4.9 2.0 4.6 98 0.1 N 9 19 5 10 - - 0.6
17/02:00am 5.0 2.1 4.7 98 0.1 NW 9 20 5 11 - - 0.6
17/01:30am 4.8 1.1 4.4 97 0.2 WNW 13 20 7 11 - - 0.6
17/01:00am 4.8 0.7 4.1 95 0.3 W 15 30 8 16 - - 0.4
17/12:30am 5.7 2.2 3.4 85 1.0 N 11 20 6 11 - - 0.2
17/12:00am 5.3 2.6 3.5 88 0.8 NE 7 15 4 8 - - 0.2
 
Date/Time
EDT
Temp
°C
App
Temp
°C
Dew
Point
°C
Rel
Hum
%
Delta-T
°C
Wind Press
QNH
hPa
Press
MSL
hPa
Rain since
9am
mm
Dir  Spd
km/h
Gust
km/h
Spd
kts
Gust
kts
16/11:30pm 5.5 2.1 3.8 89 0.8 WNW 11 20 6 11 - - 0.2
16/11:00pm 6.1 1.7 4.7 91 0.6 W 17 24 9 13 - - 0.2
16/10:30pm 7.4 4.0 6.0 91 0.7 W 13 24 7 13 - - 0.2
16/10:00pm 7.8 3.7 6.1 89 0.8 W 17 28 9 15 - - 0.2
16/09:30pm 8.3 3.2 6.1 86 1.1 WSW 22 33 12 18 - - 0.2
16/09:00pm 8.4 3.9 6.9 90 0.7 WSW 20 30 11 16 - - 0.2
16/08:30pm 8.8 5.8 7.9 94 0.5 W 13 20 7 11 - - 0.2
16/08:00pm 8.8 6.5 7.6 92 0.6 N 9 19 5 10 - - 0.2
16/07:30pm 9.0 7.4 7.8 92 0.6 WNW 6 11 3 6 - - 0.2
16/07:00pm 9.6 7.9 7.7 88 1.0 NW 6 11 3 6 - - 0.2
16/06:30pm 10.8 7.7 7.3 79 1.8 W 13 22 7 12 - - 0.0
16/06:00pm 10.3 6.6 6.1 75 2.1 W 15 30 8 16 - - 0.0
16/05:30pm 12.7 9.6 8.8 77 2.0 W 15 24 8 13 - - 0.0
16/05:00pm 9.4 5.3 7.7 89 0.9 WSW 19 28 10 15 - - 0.0
16/04:33pm 10.5 6.6 7.0 79 1.7 SW 17 50 9 27 - - 0.0
16/04:30pm 11.9 9.2 7.4 74 2.3 SW 11 22 6 12 - - 0.0
16/04:00pm 13.6 11.8 9.3 75 2.3 NNW 9 22 5 12 - - 0.0
16/03:30pm 12.5 10.2 9.1 80 1.8 NNW 11 20 6 11 - - 0.0
16/03:00pm 10.9 8.9 8.8 87 1.1 WSW 9 17 5 9 - - 0.0
16/02:30pm 9.9 8.0 9.0 94 0.5 NW 9 20 5 11 - - 0.0
16/02:00pm 9.6 7.7 9.0 96 0.3 N 9 20 5 11 - - 0.0
16/01:30pm 9.3 7.4 9.0 98 0.2 NNE 9 17 5 9 - - 0.0
16/01:00pm 9.2 6.9 8.9 98 0.2 N 11 24 6 13 - - 0.0
16/12:30pm 9.0 7.1 8.9 99 0.1 NNE 9 26 5 14 - - 0.0
16/12:00pm 8.8 6.4 8.5 98 0.2 NNW 11 26 6 14 - - 0.0
16/11:30am 8.9 6.1 8.6 98 0.2 NNW 13 28 7 15 - - 0.0
16/11:00am 9.4 7.2 9.3 99 0.1 NW 11 20 6 11 - - 0.0
16/10:30am 8.2 5.6 7.9 98 0.2 NW 11 20 6 11 - - 0.0
16/10:00am 8.1 4.7 7.8 98 0.1 NNW 15 30 8 16 - - 0.0
16/09:30am 8.1 4.7 7.8 98 0.1 NNW 15 28 8 15 - - 0.0
16/09:00am 8.1 4.7 7.8 98 0.1 NNW 15 20 8 11 - - 1.4
16/08:30am 8.2 5.6 7.9 98 0.2 NNW 11 20 6 11 - - 1.2
16/08:00am 8.0 4.6 7.6 97 0.2 N 15 26 8 14 - - 1.0
16/07:30am 8.1 4.7 7.7 97 0.2 N 15 26 8 14 - - 1.0
16/07:00am 8.2 5.2 7.8 97 0.2 N 13 24 7 13 - - 0.8
16/06:30am 8.3 5.3 7.7 96 0.3 N 13 19 7 10 - - 0.4
16/06:00am 8.4 6.1 7.5 94 0.4 N 9 13 5 7 - - 0.2
16/05:30am 8.8 6.5 7.4 91 0.7 N 9 17 5 9 - - 0.0
16/05:00am 8.8 6.1 7.3 90 0.7 NNE 11 19 6 10 - - 0.0
16/04:30am 8.2 4.6 6.8 91 0.7 NE 15 22 8 12 - - 0.0
16/04:00am 8.4 6.5 6.9 90 0.7 ESE 6 9 3 5 - - 0.0
16/03:30am 8.3 6.8 6.9 91 0.7 ENE 4 11 2 6 - - 0.0
16/03:00am 8.7 6.6 6.8 88 0.9 NW 7 11 4 6 - - 0.0
16/02:30am 9.0 6.9 6.8 86 1.1 NNE 7 9 4 5 - - 0.0
16/02:00am 9.6 8.2 7.2 85 1.2 SSW 4 7 2 4 - - 0.0
16/01:30am 9.4 7.4 7.0 85 1.2 NNE 7 11 4 6 - - 0.0
16/01:00am 9.0 7.2 7.0 87 1.0 NNE 6 11 3 6 - - 0.0
16/12:30am 8.3 6.3 6.9 91 0.7 SSW 7 13 4 7 - - 0.0
16/12:00am 8.2 5.4 6.8 91 0.7 SSW 11 15 6 8 - - 0.0
 
Date/Time
EDT
Temp
°C
App
Temp
°C
Dew
Point
°C
Rel
Hum
%
Delta-T
°C
Wind Press
QNH
hPa
Press
MSL
hPa
Rain since
9am
mm
Dir  Spd
km/h
Gust
km/h
Spd
kts
Gust
kts
15/11:30pm 9.0 6.9 6.8 86 1.1 S 7 11 4 6 - - 0.0
15/11:00pm 8.3 4.7 6.9 91 0.7 S 15 20 8 11 - - 0.0
15/10:30pm 8.9 7.0 7.4 90 0.7 SW 7 15 4 8 - - 0.0
15/10:00pm 8.8 5.4 7.7 93 0.6 S 15 19 8 10 - - 0.0
15/09:30pm 8.9 4.9 8.1 95 0.4 SSW 19 24 10 13 - - 0.0
15/09:00pm 8.9 5.6 8.1 95 0.4 S 15 20 8 11 - - 0.0
15/08:30pm 9.5 5.6 6.9 84 1.3 SSW 17 28 9 15 - - 0.0
15/08:00pm 9.9 5.8 6.3 78 1.8 SSW 17 24 9 13 - - 0.0
15/07:30pm 10.2 6.9 6.2 76 2.0 SW 13 17 7 9 - - 0.0
15/07:00pm 10.4 7.5 6.4 76 2.0 SSW 11 15 6 8 - - 0.0
15/06:30pm 10.6 7.7 6.6 76 2.0 SSW 11 19 6 10 - - 0.0
15/06:00pm 10.8 6.2 6.7 76 2.0 SSW 20 28 11 15 - - 0.0
15/05:30pm 11.6 7.7 7.3 75 2.2 SW 17 24 9 13 - - 0.0
15/05:00pm 12.2 8.0 7.3 72 2.5 SSW 19 28 10 15 - - 0.0
15/04:30pm 12.5 8.2 7.0 69 2.8 SSW 19 28 10 15 - - 0.0
15/04:00pm 12.9 7.9 8.2 73 2.4 SSW 24 35 13 19 - - 0.0
15/03:30pm 12.7 8.3 7.6 71 2.6 SSW 20 35 11 19 - - 0.0
15/03:00pm 12.8 8.5 7.7 71 2.6 SSW 20 28 11 15 - - 0.0
15/02:30pm 13.9 11.6 8.9 72 2.7 S 11 17 6 9 - - 0.0
15/02:00pm 13.1 10.2 8.2 72 2.5 S 13 22 7 12 - - 0.0
15/01:30pm 13.5 11.7 8.1 70 2.8 SE 7 15 4 8 - - 0.0

Other formats

Comma delimited format used in spreadsheet applications
http://www.bom.gov.au/fwo/IDV60801/IDV60801.94835.axf

JavaScript Object Notation format (JSON) in row-major order
http://www.bom.gov.au/fwo/IDV60801/IDV60801.94835.json

Data quality

Most of these data are generated automatically and are frequently updated. Quality checks on data are not normally performed. It is possible for incorrect values to appear. Refer to information at About Latest Weather Observations and please check the disclaimer before using these data.